Time;durP1;ratioP1;P1;durP2;ratioP2;P2;SDS_P1;SDS_P2;PMS_P1;PMS_P2;Temp;Humidity;BMP_temperature;BMP_pressure;BME280_temperature;BME280_humidity;BME280_pressure;Samples;Min_cycle;Max_cycle;Signal;HPM_P1;HPM_P2
2023/11/18 00:00:28;;;;;;;21.52;13.05;;;6.90;96.20;;;;;;5024416;28;20095;-76
2023/11/18 00:02:53;;;;;;;70.00;39.65;;;6.90;96.20;;;;;;5022290;28;20461;-75
2023/11/18 00:05:20;;;;;;;63.45;36.65;;;6.90;96.20;;;;;;5016885;28;20037;-74
2023/11/18 00:07:46;;;;;;;52.53;29.45;;;6.90;96.10;;;;;;5021302;28;20037;-78
2023/11/18 00:10:11;;;;;;;25.55;17.02;;;6.90;96.10;;;;;;5023502;28;20781;-75
2023/11/18 00:12:41;;;;;;;26.83;13.60;;;6.90;96.10;;;;;;5020114;28;20037;-75
2023/11/18 00:15:11;;;;;;;21.77;12.63;;;6.90;96.00;;;;;;5023047;28;20033;-76
2023/11/18 00:17:40;;;;;;;24.05;13.00;;;6.90;95.90;;;;;;5022962;28;20085;-73
2023/11/18 00:20:09;;;;;;;21.60;12.00;;;6.90;95.90;;;;;;5021687;28;20102;-74
2023/11/18 00:22:39;;;;;;;20.05;11.13;;;6.90;95.90;;;;;;5023851;28;20588;-77
2023/11/18 00:25:05;;;;;;;23.92;11.23;;;7.00;95.80;;;;;;5021158;28;20045;-77
2023/11/18 00:27:31;;;;;;;16.95;10.50;;;7.00;95.60;;;;;;5012570;28;20030;-74
2023/11/18 00:29:57;;;;;;;23.55;11.35;;;7.10;95.50;;;;;;5026152;28;20056;-74
2023/11/18 00:32:23;;;;;;;17.75;10.68;;;7.00;95.40;;;;;;5019980;28;20447;-76
2023/11/18 00:34:48;;;;;;;21.45;11.35;;;7.10;95.40;;;;;;5026326;28;20067;-74
2023/11/18 00:37:14;;;;;;;16.92;10.45;;;7.00;95.20;;;;;;5022550;28;20038;-75
2023/11/18 00:39:41;;;;;;;23.00;10.95;;;7.00;95.20;;;;;;5027551;28;20265;-76
2023/11/18 00:42:06;;;;;;;23.35;10.75;;;7.10;95.10;;;;;;5024173;28;20037;-74
2023/11/18 00:44:32;;;;;;;20.00;10.07;;;7.10;95.00;;;;;;5025960;28;20477;-77
2023/11/18 00:46:58;;;;;;;17.42;10.43;;;7.10;95.00;;;;;;5024466;28;20033;-77
2023/11/18 00:49:25;;;;;;;19.23;9.48;;;7.10;94.90;;;;;;5026998;28;20026;-75
2023/11/18 00:51:51;;;;;;;20.08;10.23;;;7.10;94.90;;;;;;5023581;28;20063;-76
2023/11/18 00:54:17;;;;;;;17.98;10.48;;;7.10;94.90;;;;;;5026120;28;20389;-75
2023/11/18 00:56:42;;;;;;;22.80;11.57;;;7.10;94.90;;;;;;5020550;28;20727;-78
2023/11/18 00:59:08;;;;;;;27.77;13.13;;;7.10;94.80;;;;;;5025252;28;20483;-76
2023/11/18 01:01:34;;;;;;;18.33;10.77;;;7.10;94.80;;;;;;5023791;28;20386;-75
2023/11/18 01:04:00;;;;;;;23.17;11.10;;;7.10;94.70;;;;;;5026800;28;20533;-79
2023/11/18 01:06:26;;;;;;;18.88;11.35;;;7.10;94.70;;;;;;5021836;28;21077;-74
2023/11/18 01:08:53;;;;;;;21.88;11.98;;;7.10;94.70;;;;;;5025367;28;20136;-76
2023/11/18 01:11:19;;;;;;;22.05;11.82;;;7.10;94.70;;;;;;5020376;28;20041;-73
2023/11/18 01:13:50;;;;;;;22.60;11.88;;;7.10;94.70;;;;;;5026406;28;20455;-74
2023/11/18 01:16:16;;;;;;;17.23;10.52;;;7.10;94.70;;;;;;5037106;28;20387;-76
2023/11/18 01:18:43;;;;;;;16.67;11.27;;;7.10;94.80;;;;;;5026816;28;20024;-78
2023/11/18 01:21:09;;;;;;;22.60;11.57;;;7.10;94.70;;;;;;5023624;28;20030;-75
2023/11/18 01:23:38;;;;;;;18.73;10.73;;;7.10;94.60;;;;;;5025197;28;20037;-74
2023/11/18 01:26:05;;;;;;;22.40;11.13;;;7.10;94.60;;;;;;5020531;28;20139;-79
2023/11/18 01:28:39;;;;;;;22.98;10.95;;;7.10;94.50;;;;;;5024770;28;20784;-76
2023/11/18 01:31:07;;;;;;;23.38;10.85;;;7.10;94.60;;;;;;5018589;28;20075;-76
2023/11/18 01:33:32;;;;;;;24.42;10.90;;;7.20;94.60;;;;;;5020022;28;20053;-76
2023/11/18 01:35:59;;;;;;;21.27;10.10;;;7.10;94.70;;;;;;5024221;28;20053;-76
2023/11/18 01:38:26;;;;;;;17.00;8.95;;;7.20;94.70;;;;;;5024932;28;20045;-75
2023/11/18 01:40:53;;;;;;;18.55;9.25;;;7.20;94.70;;;;;;5024656;28;20041;-75
2023/11/18 01:43:18;;;;;;;18.38;9.15;;;7.20;94.70;;;;;;5024913;28;20049;-75
2023/11/18 01:45:44;;;;;;;19.55;9.82;;;7.20;94.70;;;;;;5024084;28;20095;-75
2023/11/18 01:48:10;;;;;;;22.08;11.15;;;7.20;94.70;;;;;;5021282;28;20128;-76
2023/11/18 01:50:38;;;;;;;22.42;9.93;;;7.20;94.70;;;;;;5021323;28;20034;-75
2023/11/18 01:53:05;;;;;;;21.35;10.20;;;7.20;94.70;;;;;;5023151;28;20030;-75
2023/11/18 01:55:31;;;;;;;20.70;10.20;;;7.30;94.70;;;;;;5024113;28;20037;-77
2023/11/18 01:57:57;;;;;;;20.13;10.52;;;7.20;94.60;;;;;;5022630;28;20060;-76
2023/11/18 02:00:24;;;;;;;17.95;9.95;;;7.20;94.60;;;;;;5027719;28;20108;-75
2023/11/18 02:02:50;;;;;;;23.88;10.15;;;7.30;94.60;;;;;;5035650;28;20080;-78
2023/11/18 02:05:17;;;;;;;22.08;10.43;;;7.20;94.60;;;;;;5028725;28;20286;-78
2023/11/18 02:07:43;;;;;;;24.00;9.98;;;7.20;94.60;;;;;;5035266;28;20454;-77
2023/11/18 02:10:09;;;;;;;25.33;10.98;;;7.20;94.70;;;;;;5024502;28;20041;-76
2023/11/18 02:12:56;;;;;;;20.40;9.68;;;7.30;94.60;;;;;;5025285;28;20124;-74
2023/11/18 02:15:23;;;;;;;18.25;9.05;;;7.30;94.60;;;;;;5021804;28;20037;-76
2023/11/18 02:17:52;;;;;;;18.67;9.80;;;7.20;94.60;;;;;;5023500;28;20084;-74
2023/11/18 02:20:20;;;;;;;21.10;9.43;;;7.20;94.60;;;;;;5023943;28;20033;-76
2023/11/18 02:22:47;;;;;;;17.80;9.48;;;7.30;94.70;;;;;;5025109;28;20041;-75
2023/11/18 02:25:18;;;;;;;20.10;9.07;;;7.30;94.50;;;;;;5024059;28;20037;-76
2023/11/18 02:27:45;;;;;;;20.67;7.78;;;7.30;94.50;;;;;;5025458;28;20094;-75
2023/11/18 02:30:16;;;;;;;22.67;9.38;;;7.30;94.50;;;;;;5025662;28;20045;-76
2023/11/18 02:32:57;;;;;;;23.40;9.10;;;7.30;94.60;;;;;;5026531;28;20041;-76
2023/11/18 02:35:40;;;;;;;20.58;9.60;;;7.30;94.50;;;;;;5024350;28;20482;-75
2023/11/18 02:38:10;;;;;;;17.90;8.50;;;7.40;94.50;;;;;;5022363;28;20449;-76
2023/11/18 02:40:44;;;;;;;18.67;8.57;;;7.40;94.50;;;;;;5025020;28;20034;-75
2023/11/18 02:43:10;;;;;;;22.30;8.68;;;7.40;94.50;;;;;;5023957;28;20037;-75
2023/11/18 02:45:37;;;;;;;21.15;7.88;;;7.40;94.50;;;;;;5023251;28;20061;-75
2023/11/18 02:48:06;;;;;;;21.50;9.80;;;7.40;94.40;;;;;;5024840;28;20493;-76
2023/11/18 02:50:32;;;;;;;22.65;8.68;;;7.50;94.30;;;;;;5021614;28;20131;-75
2023/11/18 02:52:58;;;;;;;20.13;8.07;;;7.50;94.30;;;;;;5023954;28;20397;-75
2023/11/18 02:55:25;;;;;;;23.75;8.80;;;7.50;94.20;;;;;;5025064;28;20034;-76
2023/11/18 02:57:54;;;;;;;22.67;9.20;;;7.50;94.20;;;;;;5018684;28;20129;-75
2023/11/18 03:00:22;;;;;;;19.80;9.68;;;7.60;94.00;;;;;;5015722;28;20067;-75
2023/11/18 03:02:50;;;;;;;21.15;9.32;;;7.60;93.90;;;;;;5020065;28;20506;-76
2023/11/18 03:05:15;;;;;;;24.98;9.15;;;7.60;93.80;;;;;;5023460;28;20030;-76
2023/11/18 03:07:42;;;;;;;22.10;9.15;;;7.60;93.70;;;;;;5017718;28;20045;-79
2023/11/18 03:10:13;;;;;;;18.88;7.88;;;7.70;93.70;;;;;;5022101;28;20033;-75
2023/11/18 03:12:38;;;;;;;20.23;8.65;;;7.60;93.70;;;;;;5023031;28;20148;-76
2023/11/18 03:15:09;;;;;;;23.17;9.35;;;7.70;93.70;;;;;;5022539;28;20109;-77
2023/11/18 03:17:34;;;;;;;19.20;7.88;;;7.70;93.70;;;;;;5022623;28;20100;-75
2023/11/18 03:20:00;;;;;;;22.98;8.68;;;7.70;93.70;;;;;;5024371;28;20778;-76
2023/11/18 03:22:26;;;;;;;22.67;8.90;;;7.70;93.60;;;;;;5023839;28;20087;-74
2023/11/18 03:24:52;;;;;;;19.15;7.85;;;7.70;93.50;;;;;;5022630;28;20053;-76
2023/11/18 03:27:18;;;;;;;19.83;8.45;;;7.70;93.60;;;;;;5022829;28;20029;-75
2023/11/18 03:29:46;;;;;;;18.50;7.40;;;7.70;93.60;;;;;;5021118;28;20045;-76
2023/11/18 03:32:12;;;;;;;20.05;7.47;;;7.70;93.50;;;;;;5023708;28;20045;-78
2023/11/18 03:34:38;;;;;;;18.55;8.70;;;7.80;93.50;;;;;;5021910;28;20021;-75
2023/11/18 03:37:04;;;;;;;16.77;7.32;;;7.80;93.40;;;;;;5021432;28;20044;-76
2023/11/18 03:39:30;;;;;;;19.85;7.82;;;7.80;93.40;;;;;;5024965;28;20459;-76
2023/11/18 03:41:57;;;;;;;19.42;7.57;;;7.80;93.20;;;;;;5022007;28;20379;-75
2023/11/18 03:44:24;;;;;;;17.23;7.80;;;7.90;93.20;;;;;;5022342;28;20033;-78
2023/11/18 03:46:49;;;;;;;18.65;7.30;;;7.80;93.30;;;;;;5021563;28;20040;-76
2023/11/18 03:49:15;;;;;;;19.90;7.28;;;7.80;93.30;;;;;;5023110;28;20026;-76
2023/11/18 03:51:41;;;;;;;19.08;7.30;;;7.90;93.30;;;;;;5022348;28;20371;-79
2023/11/18 03:54:08;;;;;;;19.17;7.10;;;7.90;93.20;;;;;;5026093;28;20052;-73
2023/11/18 03:56:34;;;;;;;16.65;7.22;;;7.90;93.00;;;;;;5019456;28;20130;-76
2023/11/18 03:59:00;;;;;;;15.38;7.32;;;8.00;93.00;;;;;;5022916;28;20071;-75
2023/11/18 04:01:29;;;;;;;21.15;7.03;;;7.90;93.00;;;;;;5020184;28;20042;-75
2023/11/18 04:03:55;;;;;;;15.50;6.00;;;8.00;92.90;;;;;;5018431;28;20111;-75
2023/11/18 04:06:24;;;;;;;20.40;6.70;;;8.00;93.00;;;;;;5018962;28;20033;-76
2023/11/18 04:08:50;;;;;;;21.88;6.95;;;8.00;93.00;;;;;;5023518;28;20034;-75
2023/11/18 04:11:16;;;;;;;17.40;6.28;;;8.00;93.00;;;;;;5020006;28;20160;-75
2023/11/18 04:13:42;;;;;;;18.25;5.85;;;8.00;93.10;;;;;;5023522;28;20502;-79
2023/11/18 04:16:15;;;;;;;17.02;6.65;;;8.00;93.10;;;;;;5022619;28;20093;-75
2023/11/18 04:18:42;;;;;;;15.85;6.47;;;8.00;93.10;;;;;;5018463;28;20040;-75
2023/11/18 04:21:08;;;;;;;15.52;6.72;;;8.10;93.00;;;;;;5020823;28;20122;-77
2023/11/18 04:23:42;;;;;;;17.45;5.75;;;8.10;93.20;;;;;;5020628;28;20114;-76
2023/11/18 04:26:08;;;;;;;17.55;5.68;;;8.10;93.30;;;;;;5020483;28;20614;-75
2023/11/18 04:28:34;;;;;;;17.08;6.28;;;8.10;93.20;;;;;;5013823;28;20058;-75
2023/11/18 04:31:00;;;;;;;14.23;6.03;;;8.10;93.10;;;;;;5018783;28;20029;-76
2023/11/18 04:33:26;;;;;;;14.55;5.85;;;8.10;93.20;;;;;;5021488;28;20181;-75
2023/11/18 04:35:52;;;;;;;15.73;5.85;;;8.10;93.30;;;;;;5022087;28;20041;-77
2023/11/18 04:38:18;;;;;;;15.50;5.65;;;8.10;93.20;;;;;;5021763;28;20557;-77
2023/11/18 04:40:48;;;;;;;17.65;5.32;;;8.10;93.20;;;;;;5017390;28;20030;-76
2023/11/18 04:43:13;;;;;;;17.75;5.72;;;8.10;93.30;;;;;;5017998;28;20424;-77
2023/11/18 04:45:39;;;;;;;15.18;5.05;;;8.10;93.40;;;;;;5018541;28;20164;-76
2023/11/18 04:48:05;;;;;;;16.10;5.43;;;8.10;93.30;;;;;;5019175;28;20049;-74
2023/11/18 04:50:32;;;;;;;16.30;5.35;;;8.10;93.40;;;;;;5018954;28;20514;-76
2023/11/18 04:52:58;;;;;;;20.05;5.22;;;8.10;93.50;;;;;;5020005;28;20091;-74
2023/11/18 04:55:25;;;;;;;18.90;4.75;;;8.20;93.50;;;;;;5021742;28;20490;-75
2023/11/18 04:57:52;;;;;;;18.50;5.72;;;8.20;93.30;;;;;;5018406;28;20045;-77
2023/11/18 05:00:19;;;;;;;21.42;4.88;;;8.20;93.30;;;;;;5021350;28;20061;-74
2023/11/18 05:02:48;;;;;;;16.02;4.88;;;8.20;93.20;;;;;;5019989;28;20128;-76
2023/11/18 05:05:18;;;;;;;15.57;4.90;;;8.30;93.10;;;;;;5020450;28;20049;-78
2023/11/18 05:07:43;;;;;;;12.57;5.25;;;8.20;93.20;;;;;;5021174;28;20513;-76
2023/11/18 05:10:10;;;;;;;16.48;4.18;;;8.20;93.30;;;;;;5022173;28;20037;-76
2023/11/18 05:12:37;;;;;;;15.15;4.28;;;8.20;93.30;;;;;;5021414;28;20072;-77
2023/11/18 05:15:04;;;;;;;14.38;4.35;;;8.20;93.40;;;;;;5022502;28;20045;-75
2023/11/18 05:17:30;;;;;;;16.33;4.20;;;8.20;93.40;;;;;;5024574;28;20041;-76
2023/11/18 05:19:56;;;;;;;15.23;5.00;;;8.20;93.40;;;;;;5024259;28;20048;-76
2023/11/18 05:22:21;;;;;;;17.08;5.07;;;8.30;93.50;;;;;;5024548;28;20025;-77
2023/11/18 05:24:47;;;;;;;14.45;4.72;;;8.30;93.40;;;;;;5023557;28;20447;-78
2023/11/18 05:27:14;;;;;;;13.98;4.97;;;8.30;93.40;;;;;;5023664;28;20033;-77
2023/11/18 05:29:45;;;;;;;14.35;4.90;;;8.30;93.40;;;;;;5023785;28;20048;-76
2023/11/18 05:32:10;;;;;;;14.25;5.07;;;8.40;93.40;;;;;;5025448;28;20099;-76
2023/11/18 05:34:36;;;;;;;20.17;6.18;;;8.40;93.40;;;;;;5022687;28;20037;-75
2023/11/18 05:37:02;;;;;;;22.50;5.78;;;8.40;93.50;;;;;;5022572;28;20132;-75
2023/11/18 05:39:30;;;;;;;20.80;5.13;;;8.40;93.60;;;;;;5024062;28;20037;-77
2023/11/18 05:41:58;;;;;;;13.32;4.97;;;8.40;93.60;;;;;;5024706;28;20443;-76
2023/11/18 05:44:30;;;;;;;12.88;5.30;;;8.40;93.70;;;;;;5026896;28;20044;-75
2023/11/18 05:46:57;;;;;;;11.82;5.45;;;8.40;93.60;;;;;;5022313;28;20069;-75
2023/11/18 05:49:24;;;;;;;12.43;5.13;;;8.50;93.50;;;;;;5025582;28;20028;-76
2023/11/18 05:51:50;;;;;;;21.30;6.20;;;8.50;93.60;;;;;;5019371;28;20230;-76
2023/11/18 05:54:16;;;;;;;16.35;5.82;;;8.50;93.60;;;;;;5024843;28;20036;-78
2023/11/18 05:56:41;;;;;;;12.82;5.43;;;8.50;93.70;;;;;;5012014;28;20038;-75
2023/11/18 05:59:08;;;;;;;13.45;5.25;;;8.50;93.80;;;;;;5023809;28;20021;-75
2023/11/18 06:01:34;;;;;;;16.73;7.00;;;8.50;93.90;;;;;;5020414;28;20045;-75
2023/11/18 06:04:00;;;;;;;13.98;5.28;;;8.50;94.00;;;;;;5023792;28;20060;-75
2023/11/18 06:06:26;;;;;;;16.58;6.13;;;8.50;94.00;;;;;;5018467;28;20100;-75
2023/11/18 06:08:53;;;;;;;17.00;6.13;;;8.50;94.10;;;;;;5022576;28;20060;-74
2023/11/18 06:11:19;;;;;;;16.30;5.85;;;8.50;94.10;;;;;;5022562;28;20032;-75
2023/11/18 06:13:50;;;;;;;15.57;6.88;;;8.50;94.20;;;;;;5022855;28;20434;-76
2023/11/18 06:16:20;;;;;;;15.45;6.68;;;8.50;94.20;;;;;;5020448;28;20045;-75
2023/11/18 06:18:47;;;;;;;16.02;6.55;;;8.50;94.20;;;;;;5024438;28;20112;-77
2023/11/18 06:21:14;;;;;;;13.90;6.35;;;8.60;94.20;;;;;;5022983;28;20128;-77
2023/11/18 06:23:41;;;;;;;17.20;7.03;;;8.60;94.30;;;;;;5024281;28;20044;-74
2023/11/18 06:26:07;;;;;;;17.65;6.88;;;8.60;94.30;;;;;;5024680;28;20037;-75
2023/11/18 06:28:33;;;;;;;17.55;6.82;;;8.60;94.40;;;;;;5024636;28;20056;-76
2023/11/18 06:31:00;;;;;;;16.92;7.15;;;8.60;94.60;;;;;;5022298;28;20030;-74
2023/11/18 06:33:27;;;;;;;14.30;6.70;;;8.60;94.70;;;;;;5024415;28;20037;-75
2023/11/18 06:35:55;;;;;;;18.23;7.72;;;8.60;94.70;;;;;;5021476;28;20395;-75
2023/11/18 06:38:21;;;;;;;21.40;7.55;;;8.60;94.70;;;;;;5022968;28;20037;-76
2023/11/18 06:40:46;;;;;;;17.75;7.00;;;8.60;94.80;;;;;;5021093;28;20052;-76
2023/11/18 06:43:12;;;;;;;18.95;7.38;;;8.60;94.90;;;;;;5023448;28;20738;-77
2023/11/18 06:45:43;;;;;;;17.90;7.35;;;8.60;95.00;;;;;;5023792;28;21175;-76
2023/11/18 06:48:09;;;;;;;17.65;6.82;;;8.60;95.10;;;;;;5021462;28;20025;-75
2023/11/18 06:50:35;;;;;;;18.05;7.38;;;8.60;95.10;;;;;;5021640;28;20026;-75
2023/11/18 06:53:01;;;;;;;17.45;7.70;;;8.60;95.20;;;;;;5020020;28;20033;-77
2023/11/18 06:55:26;;;;;;;19.05;7.88;;;8.60;95.40;;;;;;5023581;28;20642;-75
2023/11/18 06:57:54;;;;;;;19.25;7.70;;;8.60;95.40;;;;;;5023701;28;20041;-75
2023/11/18 07:00:21;;;;;;;17.50;7.63;;;8.60;95.50;;;;;;5039061;28;20103;-77
2023/11/18 07:02:48;;;;;;;18.63;7.85;;;8.60;95.60;;;;;;5040177;28;20038;-75
2023/11/18 07:05:14;;;;;;;16.95;7.43;;;8.60;95.70;;;;;;5041598;28;20041;-77
2023/11/18 07:07:43;;;;;;;18.40;7.93;;;8.60;95.90;;;;;;5024767;28;20043;-78
2023/11/18 07:10:12;;;;;;;19.63;8.15;;;8.60;96.10;;;;;;5020979;28;20029;-75
2023/11/18 07:12:38;;;;;;;19.27;7.32;;;8.60;96.20;;;;;;5017681;28;20099;-74
2023/11/18 07:15:05;;;;;;;16.17;7.32;;;8.60;96.30;;;;;;5020480;28;20042;-76
2023/11/18 07:17:31;;;;;;;19.20;9.25;;;8.60;96.60;;;;;;5023822;28;20486;-76
2023/11/18 07:19:56;;;;;;;14.95;7.28;;;8.60;96.80;;;;;;5022635;28;20045;-76
2023/11/18 07:22:22;;;;;;;19.38;8.05;;;8.60;96.90;;;;;;5026067;28;20578;-77
2023/11/18 07:24:48;;;;;;;23.85;8.77;;;8.60;97.10;;;;;;5019110;28;20118;-75
2023/11/18 07:27:13;;;;;;;19.35;7.72;;;8.60;97.20;;;;;;5019870;28;20033;-75
2023/11/18 07:29:39;;;;;;;17.63;8.05;;;8.60;97.40;;;;;;5024528;28;20052;-75
2023/11/18 07:32:09;;;;;;;20.05;8.57;;;8.60;97.50;;;;;;5019913;28;20029;-78
2023/11/18 07:34:35;;;;;;;16.75;7.53;;;8.60;97.50;;;;;;5023409;28;20029;-73
2023/11/18 07:37:01;;;;;;;21.45;8.27;;;8.60;97.70;;;;;;5021358;28;20038;-74
2023/11/18 07:39:43;;;;;;;19.42;7.63;;;8.70;97.70;;;;;;5018949;28;20026;-74
2023/11/18 07:42:12;;;;;;;19.80;8.38;;;8.70;97.70;;;;;;5015804;28;20045;-75
2023/11/18 07:44:39;;;;;;;21.90;9.60;;;8.70;97.70;;;;;;5017528;28;20839;-73
2023/11/18 07:47:05;;;;;;;21.15;9.23;;;8.70;97.70;;;;;;5017686;28;20038;-77
2023/11/18 07:49:31;;;;;;;21.05;8.73;;;8.70;97.80;;;;;;5022531;28;20037;-76
2023/11/18 07:51:58;;;;;;;20.42;8.63;;;8.70;97.80;;;;;;5019855;28;20040;-76
2023/11/18 07:54:23;;;;;;;19.80;8.88;;;8.70;97.80;;;;;;5024299;28;20021;-75
2023/11/18 07:56:50;;;;;;;20.48;8.98;;;8.70;97.80;;;;;;5014643;28;21284;-75
2023/11/18 07:59:18;;;;;;;17.73;7.82;;;8.70;97.80;;;;;;5020436;28;20061;-76
2023/11/18 08:01:46;;;;;;;20.60;8.85;;;8.70;97.80;;;;;;5017023;28;20091;-75
2023/11/18 08:04:13;;;;;;;19.40;8.38;;;8.70;97.80;;;;;;5022685;28;20029;-74
2023/11/18 08:06:40;;;;;;;18.13;7.90;;;8.70;97.80;;;;;;5018981;28;20510;-74
2023/11/18 08:09:10;;;;;;;17.90;8.07;;;8.70;97.80;;;;;;5017358;28;20033;-75
2023/11/18 08:11:36;;;;;;;20.90;8.40;;;8.70;97.90;;;;;;5019971;28;20026;-74
2023/11/18 08:14:02;;;;;;;16.58;7.22;;;8.70;97.80;;;;;;5021720;28;20353;-74
2023/11/18 08:16:29;;;;;;;20.23;8.43;;;8.80;97.90;;;;;;5021595;28;20025;-75
2023/11/18 08:18:55;;;;;;;20.40;9.68;;;8.80;97.90;;;;;;5023662;28;20061;-73
2023/11/18 08:21:21;;;;;;;16.98;8.15;;;8.80;97.90;;;;;;5018649;28;20038;-74
2023/11/18 08:23:48;;;;;;;18.60;8.52;;;8.80;97.90;;;;;;5027023;28;20142;-74
2023/11/18 08:26:13;;;;;;;17.77;8.57;;;8.90;97.80;;;;;;5017547;28;20486;-74
2023/11/18 08:28:40;;;;;;;17.02;8.30;;;8.80;97.80;;;;;;5021214;28;20052;-75
2023/11/18 08:31:06;;;;;;;19.10;9.10;;;8.90;97.90;;;;;;5013484;28;20609;-74
2023/11/18 08:33:33;;;;;;;17.10;8.35;;;9.00;97.80;;;;;;5019925;28;20537;-73
2023/11/18 08:36:01;;;;;;;15.43;7.60;;;9.00;97.80;;;;;;5020626;28;20318;-73
2023/11/18 08:38:28;;;;;;;19.20;7.85;;;9.00;97.70;;;;;;5021476;28;20041;-73
2023/11/18 08:40:55;;;;;;;16.80;8.13;;;9.00;97.70;;;;;;5018550;28;20469;-72
2023/11/18 08:43:21;;;;;;;16.20;7.63;;;9.00;97.80;;;;;;5016042;28;20057;-74
2023/11/18 08:45:47;;;;;;;14.13;8.05;;;9.00;97.80;;;;;;5021584;28;20026;-72
2023/11/18 08:48:13;;;;;;;15.02;7.55;;;9.00;97.80;;;;;;5011066;28;20053;-76
2023/11/18 08:50:43;;;;;;;15.70;7.22;;;9.00;97.80;;;;;;5017940;28;20034;-75
2023/11/18 08:53:09;;;;;;;17.40;8.07;;;9.00;97.90;;;;;;5019787;28;20083;-74
2023/11/18 08:55:46;;;;;;;15.60;7.28;;;9.00;97.90;;;;;;5015158;28;20160;-76
2023/11/18 08:58:15;;;;;;;17.75;8.98;;;9.00;98.00;;;;;;5020475;28;20041;-74
2023/11/18 09:00:47;;;;;;;16.20;8.23;;;9.00;98.00;;;;;;5023548;28;20124;-72
2023/11/18 09:03:27;;;;;;;16.85;8.57;;;9.00;98.00;;;;;;5021642;28;20129;-72
2023/11/18 09:05:58;;;;;;;16.30;8.43;;;9.10;98.00;;;;;;5015280;28;20156;-74
2023/11/18 09:08:42;;;;;;;13.25;7.35;;;9.00;98.00;;;;;;5018684;28;20107;-75
2023/11/18 09:11:10;;;;;;;16.90;7.03;;;9.00;98.00;;;;;;5021028;28;20735;-74
2023/11/18 09:13:38;;;;;;;18.67;8.00;;;9.10;98.00;;;;;;5015353;28;20060;-74
2023/11/18 09:16:08;;;;;;;14.63;7.90;;;9.10;98.00;;;;;;5016073;28;20061;-73
2023/11/18 09:18:35;;;;;;;13.25;7.60;;;9.10;98.00;;;;;;5018397;28;20410;-74
2023/11/18 09:21:03;;;;;;;16.67;7.97;;;9.10;98.00;;;;;;5020266;28;20402;-73
2023/11/18 09:23:31;;;;;;;19.75;7.35;;;9.10;98.00;;;;;;5020537;28;20120;-74
2023/11/18 09:25:57;;;;;;;14.60;8.25;;;9.10;98.10;;;;;;5032816;28;20096;-75
2023/11/18 09:28:24;;;;;;;15.32;7.57;;;9.10;98.10;;;;;;5022568;28;20509;-72
2023/11/18 09:30:53;;;;;;;14.95;8.35;;;9.10;98.10;;;;;;5022013;28;20045;-73
2023/11/18 09:33:28;;;;;;;14.30;8.40;;;9.10;98.30;;;;;;5023137;28;20045;-74
2023/11/18 09:36:01;;;;;;;17.27;8.23;;;9.10;98.30;;;;;;5017562;28;20072;-73
2023/11/18 09:38:31;;;;;;;15.15;7.72;;;9.10;98.40;;;;;;5022236;28;20033;-74
2023/11/18 09:41:02;;;;;;;19.02;10.23;;;9.10;98.40;;;;;;5020694;28;20072;-74
2023/11/18 09:43:32;;;;;;;17.65;10.55;;;9.10;98.50;;;;;;5022699;28;20034;-72
2023/11/18 09:46:12;;;;;;;13.70;8.43;;;9.10;98.60;;;;;;5036085;28;20403;-74
2023/11/18 09:48:47;;;;;;;16.05;8.15;;;9.10;98.60;;;;;;5020165;28;20017;-74
2023/11/18 09:51:16;;;;;;;12.90;7.65;;;9.10;98.70;;;;;;5019841;28;20124;-74
2023/11/18 09:53:46;;;;;;;13.50;8.35;;;9.10;98.70;;;;;;5021528;28;20413;-72
2023/11/18 09:56:26;;;;;;;13.45;7.90;;;9.10;98.70;;;;;;5023115;28;20048;-73
2023/11/18 09:59:06;;;;;;;13.55;7.95;;;9.10;98.80;;;;;;5020736;28;20060;-72
2023/11/18 10:01:37;;;;;;;14.57;8.38;;;9.10;98.80;;;;;;5022690;28;20510;-72
2023/11/18 10:04:06;;;;;;;11.80;7.47;;;9.20;98.70;;;;;;5024617;28;20056;-72
2023/11/18 10:06:35;;;;;;;15.15;9.95;;;9.20;98.70;;;;;;5014218;28;20029;-72
2023/11/18 10:09:15;;;;;;;13.55;8.18;;;9.20;98.80;;;;;;5018890;28;20113;-74
2023/11/18 10:11:46;;;;;;;14.13;8.25;;;9.20;98.80;;;;;;5017419;28;20124;-73
2023/11/18 10:14:15;;;;;;;14.15;7.97;;;9.20;98.80;;;;;;5021341;28;20060;-73
2023/11/18 10:16:47;;;;;;;13.25;8.52;;;9.20;98.80;;;;;;5021584;28;20107;-72
2023/11/18 10:19:14;;;;;;;13.75;8.15;;;9.20;98.80;;;;;;5023894;28;20025;-72
2023/11/18 10:21:40;;;;;;;12.40;7.45;;;9.20;98.80;;;;;;5015647;28;20538;-73
2023/11/18 10:24:14;;;;;;;13.30;7.40;;;9.20;98.80;;;;;;5019506;28;20108;-73
2023/11/18 10:26:46;;;;;;;13.07;7.25;;;9.30;98.70;;;;;;5017949;28;20346;-73
2023/11/18 10:29:13;;;;;;;15.30;7.95;;;9.20;98.80;;;;;;5019710;28;20060;-73
2023/11/18 10:31:45;;;;;;;11.43;6.72;;;9.20;98.80;;;;;;5020565;28;20029;-73
2023/11/18 10:34:18;;;;;;;11.90;6.80;;;9.30;98.80;;;;;;5023022;28;20057;-74
2023/11/18 10:37:06;;;;;;;14.50;8.02;;;9.30;98.80;;;;;;5015378;28;20040;-73
2023/11/18 10:39:32;;;;;;;12.70;6.47;;;9.30;98.80;;;;;;5019708;28;20461;-74
2023/11/18 10:42:02;;;;;;;13.30;6.70;;;9.30;98.70;;;;;;5017740;28;20441;-72
2023/11/18 10:44:29;;;;;;;11.82;6.57;;;9.30;98.80;;;;;;5024500;28;20514;-72
2023/11/18 10:46:58;;;;;;;9.88;5.93;;;9.30;98.80;;;;;;5021945;28;20157;-73
2023/11/18 10:49:24;;;;;;;11.50;6.13;;;9.40;98.70;;;;;;5020404;28;20107;-72
2023/11/18 10:51:54;;;;;;;8.80;5.90;;;9.40;98.80;;;;;;5019639;28;20052;-74
2023/11/18 10:54:21;;;;;;;9.55;5.10;;;9.40;98.70;;;;;;5018838;28;20036;-75
2023/11/18 10:56:50;;;;;;;9.95;4.93;;;9.40;98.70;;;;;;5016564;28;20076;-74
2023/11/18 10:59:16;;;;;;;8.40;4.22;;;9.40;98.70;;;;;;5019747;28;20382;-74
2023/11/18 11:01:43;;;;;;;8.50;5.47;;;9.40;98.70;;;;;;5012698;28;20466;-73
2023/11/18 11:04:10;;;;;;;9.52;5.80;;;9.40;98.80;;;;;;5023883;28;20060;-74
2023/11/18 11:06:41;;;;;;;9.00;4.78;;;9.40;98.80;;;;;;5011631;28;20045;-73
2023/11/18 11:09:16;;;;;;;7.57;4.78;;;9.40;98.80;;;;;;5009275;28;20029;-73
2023/11/18 11:11:52;;;;;;;9.80;4.35;;;9.40;98.80;;;;;;4996118;28;20029;-77
2023/11/18 11:14:21;;;;;;;7.28;4.68;;;9.50;98.80;;;;;;5014643;28;20147;-73
2023/11/18 11:16:55;;;;;;;7.82;4.32;;;9.50;98.80;;;;;;5015292;28;20044;-73
2023/11/18 11:19:44;;;;;;;7.22;4.18;;;9.60;98.80;;;;;;5011628;28;20021;-75
2023/11/18 11:22:15;;;;;;;9.02;4.32;;;9.60;98.80;;;;;;5017718;28;20430;-74
2023/11/18 11:25:09;;;;;;;7.95;4.50;;;9.60;98.80;;;;;;5018731;28;20490;-75
2023/11/18 11:28:13;;;;;;;8.57;4.45;;;9.60;98.80;;;;;;5013936;28;20037;-73
2023/11/18 11:30:50;;;;;;;6.82;3.83;;;9.60;98.90;;;;;;5009182;28;20037;-75
2023/11/18 11:33:29;;;;;;;7.13;3.58;;;9.60;98.90;;;;;;5015299;28;20071;-74
2023/11/18 11:35:59;;;;;;;6.32;3.58;;;9.60;98.80;;;;;;5015400;28;20538;-74
2023/11/18 11:38:28;;;;;;;5.90;3.65;;;9.70;98.90;;;;;;5014653;28;20060;-74
2023/11/18 11:40:56;;;;;;;5.75;3.13;;;9.70;98.90;;;;;;5012790;28;20072;-75
2023/11/18 11:43:21;;;;;;;8.70;3.53;;;9.70;98.90;;;;;;5015048;28;20033;-73
2023/11/18 11:45:51;;;;;;;6.45;3.53;;;9.70;98.80;;;;;;5012789;28;20387;-75
2023/11/18 11:48:26;;;;;;;5.82;3.00;;;9.70;98.80;;;;;;5007099;28;20518;-74
2023/11/18 11:51:20;;;;;;;6.90;3.63;;;9.70;98.80;;;;;;5010311;28;20053;-75
2023/11/18 11:54:16;;;;;;;5.20;3.15;;;9.70;98.70;;;;;;5016730;28;20029;-74
2023/11/18 11:56:47;;;;;;;7.88;4.30;;;9.70;98.70;;;;;;5034200;28;20474;-76
2023/11/18 11:59:16;;;;;;;8.98;3.78;;;9.80;98.80;;;;;;5040516;28;20018;-77
2023/11/18 12:01:46;;;;;;;6.30;3.70;;;9.80;98.80;;;;;;5027685;28;20033;-73
2023/11/18 12:04:21;;;;;;;6.30;3.60;;;9.80;98.80;;;;;;5013872;28;20113;-74
2023/11/18 12:06:48;;;;;;;4.32;2.90;;;9.80;98.80;;;;;;5019614;28;20402;-75
2023/11/18 12:09:19;;;;;;;5.18;3.10;;;9.80;98.80;;;;;;5011798;28;20057;-75
2023/11/18 12:11:49;;;;;;;7.38;4.15;;;9.80;98.80;;;;;;5012199;28;20550;-77
2023/11/18 12:17:08;;;;;;;16.67;8.82;;;9.80;98.90;;;;;;5008558;28;20037;-77
2023/11/18 12:19:46;;;;;;;8.35;4.00;;;9.80;99.00;;;;;;5012308;28;20061;-75
2023/11/18 12:22:17;;;;;;;7.30;4.60;;;9.90;99.00;;;;;;5012385;28;20033;-77
2023/11/18 12:25:06;;;;;;;7.28;4.68;;;9.90;99.00;;;;;;5014312;28;20041;-76
2023/11/18 12:27:40;;;;;;;12.05;6.75;;;9.90;99.00;;;;;;5015330;28;20580;-76
2023/11/18 12:30:15;;;;;;;;;;;10.00;99.10;;;;;;5016769;28;20050;-76
2023/11/18 12:32:56;;;;;;;6.33;4.03;;;10.00;99.20;;;;;;5018629;28;20285;-76
2023/11/18 12:35:27;;;;;;;4.70;3.15;;;10.00;99.20;;;;;;5020658;28;20492;-74
2023/11/18 12:38:34;;;;;;;6.25;2.97;;;10.00;99.20;;;;;;5022739;28;20057;-75
2023/11/18 12:41:11;;;;;;;6.38;3.92;;;10.10;99.30;;;;;;5022407;28;20116;-74
2023/11/18 12:43:48;;;;;;;6.43;3.90;;;10.00;99.30;;;;;;5020345;28;20128;-75
2023/11/18 12:46:39;;;;;;;6.57;3.80;;;10.10;99.30;;;;;;5024815;28;20045;-76
2023/11/18 12:49:05;;;;;;;5.63;4.13;;;10.10;99.20;;;;;;5022150;28;20068;-74
2023/11/18 12:51:36;;;;;;;6.13;4.30;;;10.10;99.30;;;;;;5023209;28;20029;-74
2023/11/18 12:54:06;;;;;;;6.32;3.55;;;10.10;99.30;;;;;;5023798;28;20018;-77
2023/11/18 12:56:32;;;;;;;5.95;3.50;;;10.10;99.30;;;;;;5020433;28;20034;-74